createdAt,value
2022-10-03T00:00:12.463Z,-10.48214
2022-10-03T00:05:13.404Z,-10.79582
2022-10-03T00:10:14.376Z,-10.72849
2022-10-03T00:15:15.306Z,-11.60595
2022-10-03T00:20:16.285Z,-11.40777
2022-10-03T00:25:17.254Z,-12.54692
2022-10-03T00:30:18.225Z,-12.65316
2022-10-03T00:35:19.182Z,-12.55337
2022-10-03T00:40:20.109Z,-12.91255
2022-10-03T00:45:21.072Z,-12.96205
2022-10-03T00:50:22.023Z,-13.19775
2022-10-03T00:55:22.940Z,-13.32221
2022-10-03T01:00:23.858Z,-13.47852
2022-10-03T01:05:24.800Z,-13.18642
2022-10-03T01:10:25.790Z,-13.21762
2022-10-03T01:15:26.831Z,-13.58209
2022-10-03T01:20:27.847Z,-13.62201
2022-10-03T01:25:28.779Z,-14.01509
2022-10-03T01:30:29.698Z,-14.18789
2022-10-03T01:35:30.637Z,-14.51226
2022-10-03T01:40:31.600Z,-15.24337
2022-10-03T01:45:32.551Z,-15.36488
2022-10-03T01:50:33.659Z,-15.53608
2022-10-03T01:55:34.575Z,-15.80264
2022-10-03T02:00:35.635Z,-16.13454
2022-10-03T02:05:36.715Z,-16.05479
2022-10-03T02:10:37.650Z,-16.1515
2022-10-03T02:15:38.648Z,-16.42011
2022-10-03T02:20:39.656Z,-17.25012
2022-10-03T02:25:40.597Z,-16.91908
2022-10-03T02:30:41.536Z,-17.12774
2022-10-03T02:35:42.489Z,-16.78262
2022-10-03T02:40:43.404Z,-16.76266
2022-10-03T02:45:44.376Z,-17.21094
2022-10-03T02:50:45.381Z,-17.3191
2022-10-03T02:55:46.321Z,-17.77571
2022-10-03T03:00:47.452Z,-17.98516
2022-10-03T03:05:48.478Z,-18.77274
2022-10-03T03:10:49.387Z,-18.98904
2022-10-03T03:15:50.408Z,-19.40014
2022-10-03T03:20:51.451Z,-19.15657
2022-10-03T03:25:52.360Z,-19.71715
2022-10-03T03:30:53.317Z,-19.8034
2022-10-03T03:35:54.571Z,-20.22422
2022-10-03T03:40:55.789Z,-20.19005
2022-10-03T03:45:56.807Z,-20.04229
2022-10-03T03:50:57.817Z,-20.84246
2022-10-03T03:55:58.767Z,-21.29729
2022-10-03T04:00:59.699Z,-21.60879
2022-10-03T04:06:00.673Z,-20.8872
2022-10-03T04:11:01.578Z,-21.57508
2022-10-03T04:16:02.520Z,-21.77171
2022-10-03T04:21:03.480Z,-22.23686
2022-10-03T04:26:04.416Z,-22.43957
2022-10-03T04:31:05.351Z,-23.02751
2022-10-03T04:36:06.252Z,-22.86451
2022-10-03T04:41:07.176Z,-22.77044
2022-10-03T04:46:08.183Z,-22.34868
2022-10-03T04:51:09.248Z,-22.97327
2022-10-03T04:56:10.131Z,-23.19232
2022-10-03T05:01:11.110Z,-23.43262
2022-10-03T05:06:12.053Z,-23.55199
2022-10-03T05:11:13.031Z,-23.82425
2022-10-03T05:16:13.997Z,-24.47463
2022-10-03T05:21:14.964Z,-24.42875
2022-10-03T05:26:43.535Z,-25.01194
2022-10-03T05:31:45.416Z,-25.58248
2022-10-03T05:36:46.420Z,-25.37627
2022-10-03T05:42:04.886Z,-25.54945
2022-10-03T05:47:20.334Z,-26.50669
2022-10-03T05:52:21.347Z,-26.7369
2022-10-03T05:57:22.292Z,-26.68515
2022-10-03T06:02:23.350Z,-27.2502
2022-10-03T06:07:24.358Z,-28.25264
2022-10-03T06:12:25.314Z,-28.42553
2022-10-03T06:33:47.713Z,-30.65896
2022-10-03T06:38:48.655Z,-30.83712
2022-10-03T06:43:49.588Z,-31.4958
2022-10-03T06:48:50.569Z,-31.60043
2022-10-03T06:53:51.550Z,-31.95282
2022-10-03T06:58:52.503Z,-32.27929
2022-10-03T07:03:53.480Z,-32.73757
2022-10-03T07:08:54.460Z,-32.90537
2022-10-03T07:13:55.565Z,-33.08787
2022-10-03T07:18:56.847Z,-33.85372
2022-10-03T07:23:57.806Z,-34.26828
2022-10-03T07:28:58.722Z,-34.51992
2022-10-03T07:33:59.693Z,-34.90435
2022-10-03T07:39:00.640Z,-35.64873
2022-10-03T07:44:01.730Z,-35.07062
2022-10-03T07:49:02.651Z,-35.65795
2022-10-03T07:54:03.590Z,-36.2807
2022-10-03T07:59:04.520Z,-37.22541
2022-10-03T08:04:05.597Z,-37.16412
2022-10-03T08:09:06.586Z,-37.68789
2022-10-03T08:14:07.572Z,-37.93001
2022-10-03T08:19:10.683Z,-37.80094
2022-10-03T08:24:12.017Z,-39.03161
2022-10-03T10:24:24.007Z,-41.04085
2022-10-03T10:29:24.943Z,-40.47901
2022-10-03T10:34:25.920Z,-40.01121
2022-10-03T10:39:26.859Z,-40.0498
2022-10-03T10:44:27.807Z,-39.02219
2022-10-03T10:49:28.849Z,-38.45896
2022-10-03T10:54:29.861Z,-38.71187
2022-10-03T10:59:30.871Z,-38.85582
2022-10-03T11:04:31.876Z,-39.06747
2022-10-03T11:09:32.864Z,-38.37863
2022-10-03T11:14:33.794Z,-38.68041
2022-10-03T11:19:34.752Z,-39.36543
2022-10-03T11:24:35.683Z,-39.95381
2022-10-03T11:29:36.746Z,-40.01538
2022-10-03T11:34:37.702Z,-39.77031
2022-10-03T11:39:38.622Z,-39.53686
2022-10-03T11:44:39.554Z,-39.66478
2022-10-03T11:49:40.514Z,-38.9995
2022-10-03T11:54:41.597Z,-39.22864
2022-10-03T11:59:42.548Z,-39.61558
2022-10-03T12:04:43.544Z,-39.92391
2022-10-03T12:09:44.485Z,-39.97554
2022-10-03T12:14:45.406Z,-39.17414
2022-10-03T12:19:46.392Z,-38.73631
2022-10-03T12:24:47.349Z,-38.68366
2022-10-03T12:29:48.281Z,-38.38814
2022-10-03T12:34:49.239Z,-38.48661
2022-10-03T12:39:50.213Z,-38.81194
2022-10-03T12:44:51.169Z,-38.98174
2022-10-03T12:49:52.090Z,-38.99333
2022-10-03T12:54:53.142Z,-38.86181
2022-10-03T12:59:54.085Z,-37.92923
2022-10-03T13:04:55.049Z,-37.78566
2022-10-03T13:09:56.311Z,-37.72552
2022-10-03T13:14:57.292Z,-37.58805
2022-10-03T13:19:58.201Z,-37.28134
2022-10-03T13:24:59.177Z,-37.7941
2022-10-03T13:30:00.115Z,-37.46713
2022-10-03T13:35:01.128Z,-37.08681
2022-10-03T13:40:02.200Z,-37.21336
2022-10-03T13:45:03.144Z,-37.23353
2022-10-03T13:50:04.130Z,-37.15904
2022-10-03T13:55:05.075Z,-37.26088
2022-10-03T14:00:06.013Z,-37.85205
2022-10-03T14:05:06.986Z,-37.37784
2022-10-03T14:10:08.127Z,-37.80092
2022-10-03T14:15:09.186Z,-37.5379
2022-10-03T14:20:10.176Z,-38.41557
2022-10-03T14:25:11.158Z,-38.05552
2022-10-03T14:30:12.080Z,-38.77895
2022-10-03T14:35:13.512Z,-38.16342
2022-10-03T14:40:14.469Z,-37.87129
2022-10-03T14:45:15.416Z,-37.9874
2022-10-03T14:50:16.459Z,-37.62569
2022-10-03T14:55:17.485Z,-37.33421
2022-10-03T15:00:18.401Z,-37.14297
2022-10-03T15:05:19.368Z,-37.00302
2022-10-03T15:10:20.320Z,-36.79551
2022-10-03T15:15:21.476Z,-36.68495
2022-10-03T15:20:22.429Z,-36.96576
2022-10-03T15:25:23.542Z,-37.00367
2022-10-03T15:30:29.160Z,-37.39499
2022-10-03T15:35:32.522Z,-37.12405
2022-10-03T15:40:33.567Z,-37.06105
2022-10-03T15:45:34.569Z,-36.87422
2022-10-03T15:50:35.623Z,-37.60702
2022-10-03T15:55:36.601Z,-37.78553
2022-10-03T16:00:37.612Z,-37.68433
2022-10-03T16:05:38.577Z,-37.5435
2022-10-03T16:10:39.515Z,-37.21425
2022-10-03T16:15:40.607Z,-37.37308
2022-10-03T16:20:41.592Z,-38.29978
2022-10-03T16:25:42.613Z,-37.81808
2022-10-03T16:30:43.606Z,-38.53821
2022-10-03T16:35:44.610Z,-38.49585
2022-10-03T16:40:45.594Z,-38.40339
2022-10-03T16:45:46.646Z,-38.00481
2022-10-03T16:50:47.569Z,-38.60067
2022-10-03T16:55:48.512Z,-38.67444
2022-10-03T17:00:56.447Z,-38.5359
2022-10-03T17:06:10.449Z,-38.62781
2022-10-03T17:11:11.379Z,-38.07065
2022-10-03T17:16:12.499Z,-37.70944
2022-10-03T17:21:13.456Z,-38.14031
2022-10-03T17:26:14.415Z,-38.07038
2022-10-03T17:31:15.524Z,-38.39015
2022-10-03T17:36:16.479Z,-38.65195
2022-10-03T17:41:17.380Z,-39.03702
2022-10-03T17:46:18.439Z,-38.40724
2022-10-03T17:51:19.513Z,-38.55928
2022-10-03T17:56:20.556Z,-38.45926
2022-10-03T18:01:21.589Z,-38.63176
2022-10-03T18:06:22.690Z,-38.82265
2022-10-03T18:11:23.796Z,-38.8475
2022-10-03T18:16:24.834Z,-39.34378
2022-10-03T18:21:25.876Z,-39.28787
2022-10-03T18:26:26.944Z,-39.51598
2022-10-03T18:31:27.962Z,-39.02244
2022-10-03T18:36:28.943Z,-38.60101
2022-10-03T18:41:29.880Z,-38.14533
2022-10-03T18:46:30.921Z,-37.69375
2022-10-03T18:51:31.850Z,-38.39961
2022-10-03T18:56:32.772Z,-38.94374
2022-10-03T19:01:33.885Z,-39.39736
2022-10-03T19:06:34.888Z,-39.44389
2022-10-03T19:11:35.811Z,-39.83792
2022-10-03T19:16:36.934Z,-39.74836
2022-10-03T19:21:38.336Z,-39.59625
2022-10-03T19:26:39.516Z,-39.58324
2022-10-03T19:31:40.655Z,-39.34887
2022-10-03T19:36:41.767Z,-39.54001
2022-10-03T19:41:42.656Z,-39.5776
2022-10-03T19:46:43.631Z,-39.58291
2022-10-03T19:51:44.526Z,-39.45814
2022-10-03T19:56:45.505Z,-40.13235
2022-10-03T20:01:46.591Z,-40.14083
2022-10-03T20:06:47.578Z,-40.0199
2022-10-03T20:11:48.489Z,-39.88246
2022-10-03T20:16:49.498Z,-39.68629
2022-10-03T20:21:50.467Z,-39.53265
2022-10-03T20:26:51.431Z,-39.55614
2022-10-03T20:31:52.444Z,-39.1803
2022-10-03T20:36:53.403Z,-39.04193
2022-10-03T20:41:54.316Z,-38.54043
2022-10-03T20:46:55.201Z,-39.03536
2022-10-03T20:51:56.333Z,-39.80227
2022-10-03T20:56:57.687Z,-39.44589
2022-10-03T21:01:58.656Z,-40.056
2022-10-03T21:06:59.609Z,-39.77225
2022-10-03T21:12:00.542Z,-40.06226
2022-10-03T21:17:01.906Z,-39.89897
2022-10-03T21:22:02.900Z,-39.8835
2022-10-03T21:27:03.859Z,-39.61462
2022-10-03T21:32:04.966Z,-39.42792
2022-10-03T21:37:05.936Z,-39.48197
2022-10-03T21:42:06.842Z,-39.33877
2022-10-03T21:47:07.737Z,-39.20071
2022-10-03T21:52:08.680Z,-39.08621
2022-10-03T21:57:09.664Z,-38.35898
2022-10-03T22:02:10.663Z,-38.20289
2022-10-03T22:07:11.648Z,-38.37964
2022-10-03T22:12:12.581Z,-38.12364
2022-10-03T22:17:13.495Z,-38.19382
2022-10-03T22:22:14.466Z,-37.8507
2022-10-03T22:27:15.409Z,-37.88458
2022-10-03T22:32:16.315Z,-37.73158
2022-10-03T22:37:20.669Z,-37.70225
2022-10-03T22:42:21.630Z,-37.64835
2022-10-03T22:47:22.592Z,-36.7087
2022-10-03T22:52:23.515Z,-36.97036
2022-10-03T22:57:24.438Z,-37.2046
2022-10-03T23:02:25.399Z,-37.06899
2022-10-03T23:07:26.337Z,-37.0782
2022-10-03T23:12:27.287Z,-36.96063
2022-10-03T23:17:28.666Z,-36.96375
2022-10-03T23:22:29.745Z,-37.0887
2022-10-03T23:27:30.861Z,-37.48854
2022-10-03T23:32:31.905Z,-37.51821
2022-10-03T23:37:32.924Z,-37.25717
2022-10-03T23:42:33.918Z,-37.51426
2022-10-03T23:47:34.827Z,-37.84978
2022-10-03T23:52:35.747Z,-38.13388
2022-10-03T23:57:36.675Z,-38.15036
